createdAt,value
2023-04-10T00:00:04.459Z,1011.4
2023-04-10T00:01:05.504Z,1011.4
2023-04-10T00:02:06.508Z,1011.4
2023-04-10T00:03:07.733Z,1011.4
2023-04-10T00:04:08.621Z,1011.4
2023-04-10T00:05:09.528Z,1011.4
2023-04-10T00:06:10.477Z,1011.4
2023-04-10T00:07:11.513Z,1011.3
2023-04-10T00:08:12.459Z,1011.3
2023-04-10T00:09:13.442Z,1011.3
2023-04-10T00:10:14.459Z,1011.3
2023-04-10T00:11:15.481Z,1011.3
2023-04-10T00:12:16.519Z,1011.3
2023-04-10T00:13:17.438Z,1011.3
2023-04-10T00:14:18.480Z,1011.3
2023-04-10T00:15:19.498Z,1010.7
2023-04-10T00:16:20.475Z,1011.2
2023-04-10T00:17:21.520Z,1011.3
2023-04-10T00:18:22.439Z,1011.3
2023-04-10T00:19:23.448Z,1011.3
2023-04-10T00:20:24.454Z,1011.3
2023-04-10T00:21:25.523Z,1011.3
2023-04-10T00:22:26.560Z,1011.1
2023-04-10T00:23:27.501Z,1011.2
2023-04-10T00:24:28.454Z,1011.2
2023-04-10T00:25:29.458Z,1011.2
2023-04-10T00:26:30.499Z,1011.2
2023-04-10T00:27:31.498Z,1011.2
2023-04-10T00:28:32.498Z,1011.2
2023-04-10T00:29:33.529Z,1011.3
2023-04-10T00:30:34.502Z,1011.3
2023-04-10T00:31:35.536Z,1011.2
2023-04-10T00:32:36.586Z,1011.2
2023-04-10T00:33:37.489Z,1011.2
2023-04-10T00:34:38.568Z,1011.1
2023-04-10T00:35:39.486Z,1011.1
2023-04-10T00:36:41.059Z,1011.2
2023-04-10T00:37:42.421Z,1011.1
2023-04-10T00:38:43.442Z,1011.1
2023-04-10T00:39:44.428Z,1011.1
2023-04-10T00:40:45.442Z,1011.1
2023-04-10T00:41:46.481Z,1011.1
2023-04-10T00:42:47.462Z,1011.2
2023-04-10T00:43:48.444Z,1011.1
2023-04-10T00:44:49.482Z,1011.1
2023-04-10T00:45:50.888Z,1011.1
2023-04-10T00:46:51.476Z,1011.2
2023-04-10T00:47:52.505Z,1011.2
2023-04-10T00:48:53.455Z,1011.2
2023-04-10T00:49:54.489Z,1011.1
2023-04-10T00:50:55.419Z,1011.1
2023-04-10T00:51:58.313Z,1011.1
2023-04-10T00:52:57.504Z,1011.2
2023-04-10T00:53:58.443Z,1011.2
2023-04-10T00:54:59.523Z,1011.2
2023-04-10T00:56:00.500Z,1011.2
2023-04-10T00:57:01.525Z,1011.2
2023-04-10T00:58:02.481Z,1011.2
2023-04-10T00:59:05.205Z,1011.2
2023-04-10T01:00:04.498Z,1010.6
2023-04-10T01:01:05.494Z,1011
2023-04-10T01:02:06.511Z,1011.2
2023-04-10T01:03:07.614Z,1011.3
2023-04-10T01:04:08.559Z,1011.3
2023-04-10T01:05:09.463Z,1011.2
2023-04-10T01:06:10.438Z,1011.2
2023-04-10T01:07:11.505Z,1011.2
2023-04-10T01:08:12.478Z,1011.2
2023-04-10T01:09:13.508Z,1011.2
2023-04-10T01:10:14.480Z,1011.2
2023-04-10T01:11:15.458Z,1011.2
2023-04-10T01:12:16.428Z,1011.2
2023-04-10T01:13:17.499Z,1011.2
2023-04-10T01:14:18.437Z,1011.1
2023-04-10T01:15:19.500Z,1010.5
2023-04-10T01:16:20.488Z,1011
2023-04-10T01:17:21.952Z,1011.1
2023-04-10T01:18:22.476Z,1011.2
2023-04-10T01:19:23.461Z,1011.2
2023-04-10T01:20:25.520Z,1011.2
2023-04-10T01:21:26.538Z,1011.2
2023-04-10T01:22:27.509Z,1011.1
2023-04-10T01:23:28.473Z,1011.2
2023-04-10T01:24:29.578Z,1011.1
2023-04-10T01:25:30.778Z,1011.1
2023-04-10T01:26:32.561Z,1011.2
2023-04-10T01:27:33.536Z,1011.2
2023-04-10T01:28:34.478Z,1011.1
2023-04-10T01:29:35.476Z,1011.1
2023-04-10T01:30:36.646Z,1011.2
2023-04-10T01:31:37.599Z,1011.1
2023-04-10T01:32:38.557Z,1011.1
2023-04-10T01:33:39.537Z,1011.1
2023-04-10T01:34:40.669Z,1011.2
2023-04-10T01:35:41.725Z,1011.2
2023-04-10T01:36:42.525Z,1011.2
2023-04-10T01:37:43.525Z,1011.1
2023-04-10T01:38:44.458Z,1011.1
2023-04-10T01:39:45.519Z,1011.2
2023-04-10T01:40:46.558Z,1011.2
2023-04-10T01:41:47.570Z,1011.1
2023-04-10T01:42:48.519Z,1011.1
2023-04-10T01:43:49.478Z,1011.2
2023-04-10T01:44:50.498Z,1011.2
2023-04-10T01:45:51.571Z,1011.2
2023-04-10T01:46:52.497Z,1011.1
2023-04-10T01:47:53.543Z,1011.2
2023-04-10T01:48:54.473Z,1011.2
2023-04-10T01:49:55.532Z,1011.2
2023-04-10T01:50:56.540Z,1011.2
2023-04-10T01:51:57.513Z,1011.1
2023-04-10T01:52:58.550Z,1011.2
2023-04-10T01:53:59.498Z,1011.2
2023-04-10T01:55:00.523Z,1011.1
2023-04-10T01:56:01.605Z,1011.2
2023-04-10T01:57:02.520Z,1011.2
2023-04-10T01:58:03.636Z,1011.2
2023-04-10T01:59:04.539Z,1011.2
2023-04-10T02:00:05.581Z,1011.2
2023-04-10T02:01:06.566Z,1011.2
2023-04-10T02:02:07.784Z,1011.2
2023-04-10T02:03:09.248Z,1011.2
2023-04-10T02:04:10.713Z,1011.2
2023-04-10T02:05:11.497Z,1011.2
2023-04-10T02:06:12.489Z,1011.2
2023-04-10T02:07:13.500Z,1011.2
2023-04-10T02:08:14.581Z,1011.3
2023-04-10T02:09:15.547Z,1011.2
2023-04-10T02:10:19.584Z,1011.2
2023-04-10T02:11:20.600Z,1011.2
2023-04-10T02:12:21.585Z,1011.2
2023-04-10T02:13:22.881Z,1011.2
2023-04-10T02:14:24.577Z,1011.1
2023-04-10T02:15:25.661Z,1011.1
2023-04-10T02:16:27.722Z,1010
2023-04-10T02:17:28.585Z,1010.9
2023-04-10T02:18:29.614Z,1011.1
2023-04-10T02:19:31.571Z,1011.2
2023-04-10T02:20:32.606Z,1011.2
2023-04-10T02:21:33.697Z,1011.2
2023-04-10T02:22:34.581Z,1011.1
2023-04-10T02:23:35.611Z,1011.2
2023-04-10T02:24:36.572Z,1011.2
2023-04-10T02:25:37.630Z,1011.1
2023-04-10T02:26:38.578Z,1011.2
2023-04-10T02:27:39.581Z,1011.1
2023-04-10T02:28:40.598Z,1011.2
2023-04-10T02:29:41.582Z,1011.2
2023-04-10T02:30:42.579Z,1011.2
2023-04-10T02:31:43.636Z,1011.2
2023-04-10T02:32:44.584Z,1011.2
2023-04-10T02:33:45.596Z,1011.3
2023-04-10T02:34:46.603Z,1011.2
2023-04-10T02:35:47.682Z,1011.3
2023-04-10T02:36:48.605Z,1011.3
2023-04-10T02:37:49.599Z,1011.3
2023-04-10T02:38:50.604Z,1011.3
2023-04-10T02:39:51.659Z,1011.3
2023-04-10T02:40:52.630Z,1011.3
2023-04-10T02:41:53.610Z,1011.2
2023-04-10T02:42:54.638Z,1011.2
2023-04-10T02:43:55.725Z,1011.3
2023-04-10T02:44:56.580Z,1011.3
2023-04-10T02:45:57.649Z,1011.3
2023-04-10T02:46:58.722Z,1011.3
2023-04-10T02:47:59.679Z,1011.3
2023-04-10T02:49:00.660Z,1011.3
2023-04-10T02:50:01.618Z,1011.3
2023-04-10T02:51:02.560Z,1011.3
2023-04-10T02:52:03.629Z,1011.3
2023-04-10T02:53:04.619Z,1011.2
2023-04-10T02:54:05.651Z,1011.3
2023-04-10T02:55:06.613Z,1011.3
2023-04-10T02:56:07.665Z,1011.3
2023-04-10T02:57:08.605Z,1011.3
2023-04-10T02:58:09.582Z,1011.2
2023-04-10T02:59:10.565Z,1011.2
2023-04-10T03:00:11.580Z,1011.3
2023-04-10T03:01:12.690Z,1011.3
2023-04-10T03:02:13.741Z,1011.2
2023-04-10T03:03:14.816Z,1011.2
2023-04-10T03:04:16.694Z,1011.3
2023-04-10T03:05:17.621Z,1011.3
2023-04-10T03:06:18.668Z,1011.3
2023-04-10T03:07:19.579Z,1011.3
2023-04-10T03:08:20.600Z,1011.3
2023-04-10T03:09:21.623Z,1011.3
2023-04-10T03:10:22.622Z,1011.3
2023-04-10T03:11:24.260Z,1011.3
2023-04-10T03:12:25.581Z,1011.3
2023-04-10T03:13:26.621Z,1011.3
2023-04-10T03:14:27.632Z,1011.3
2023-04-10T03:15:28.622Z,1011.4
2023-04-10T03:16:29.761Z,1011.3
2023-04-10T03:17:31.712Z,1011.3
2023-04-10T03:18:33.680Z,1011.3
2023-04-10T03:19:34.632Z,1011.3
2023-04-10T03:20:35.608Z,1011.3
2023-04-10T03:21:36.644Z,1011.3
2023-04-10T03:22:37.622Z,1011.2
2023-04-10T03:23:38.585Z,1011.2
2023-04-10T03:24:39.637Z,1011.1
2023-04-10T03:25:40.620Z,1011.2
2023-04-10T03:26:41.619Z,1011.2
2023-04-10T03:27:42.639Z,1011.3
2023-04-10T03:28:43.648Z,1011.3
2023-04-10T03:29:44.665Z,1011.3
2023-04-10T03:30:45.658Z,1011.2
2023-04-10T03:31:47.747Z,1011.2
2023-04-10T03:32:48.726Z,1011.3
2023-04-10T03:33:49.659Z,1011.3
2023-04-10T03:34:50.601Z,1011.3
2023-04-10T03:35:51.730Z,1011.2
2023-04-10T03:36:52.959Z,1011.2
2023-04-10T03:37:54.721Z,1011.3
2023-04-10T03:38:56.641Z,1011
2023-04-10T03:39:57.768Z,1011.2
2023-04-10T03:40:58.588Z,1011.2
2023-04-10T03:41:59.573Z,1011.3
2023-04-10T03:43:01.744Z,1011.2
2023-04-10T03:44:03.662Z,1011.3
2023-04-10T03:45:05.701Z,1011.3
2023-04-10T03:46:06.640Z,1011.3
2023-04-10T03:47:07.715Z,1011.3
2023-04-10T03:48:08.817Z,1011.3
2023-04-10T03:49:11.040Z,1011.2
2023-04-10T03:50:12.632Z,1011.2
2023-04-10T03:51:13.620Z,1011.3
2023-04-10T03:52:14.680Z,1011.3
2023-04-10T03:53:15.602Z,1011.4
2023-04-10T03:54:16.619Z,1011.3
2023-04-10T03:55:17.627Z,1011.2
2023-04-10T03:56:18.624Z,1011.3
2023-04-10T03:57:19.695Z,1011.3
2023-04-10T03:58:20.861Z,1011.3
2023-04-10T03:59:24.243Z,1011.3
2023-04-10T04:00:22.580Z,1011.3
2023-04-10T04:01:23.587Z,1011.2
2023-04-10T04:02:24.734Z,1011.3
2023-04-10T04:03:25.797Z,1011.3
2023-04-10T04:04:26.614Z,1011.3
2023-04-10T04:05:27.606Z,1011.3
2023-04-10T04:06:28.689Z,1011.3
2023-04-10T04:07:29.594Z,1011.3
2023-04-10T04:08:30.557Z,1011.3
2023-04-10T04:09:31.621Z,1011.3
2023-04-10T04:10:32.601Z,1011.3
2023-04-10T04:11:33.600Z,1011.3
2023-04-10T04:12:34.605Z,1011.3
2023-04-10T04:13:35.597Z,1011.2
2023-04-10T04:14:36.523Z,1011.3
2023-04-10T04:15:37.596Z,1011.3
2023-04-10T04:16:38.622Z,1011.3
2023-04-10T04:17:39.819Z,1011.4
2023-04-10T04:18:40.901Z,1011.4
2023-04-10T04:19:41.603Z,1011.3
2023-04-10T04:20:42.565Z,1011.3
2023-04-10T04:21:43.584Z,1011.3
2023-04-10T04:22:44.609Z,1011.4
2023-04-10T04:23:45.652Z,1011.4
2023-04-10T04:24:46.556Z,1011.3
2023-04-10T04:25:47.620Z,1011.4
2023-04-10T04:26:48.598Z,1011.4
2023-04-10T04:27:49.674Z,1011.4
2023-04-10T04:28:50.583Z,1011.4
2023-04-10T04:29:51.633Z,1011.4
2023-04-10T04:30:52.608Z,1011.4
2023-04-10T04:31:53.748Z,1011.4
2023-04-10T04:32:54.660Z,1011.4
2023-04-10T04:33:55.794Z,1011.4
2023-04-10T04:34:56.623Z,1011.4
2023-04-10T04:35:57.674Z,1011.5
2023-04-10T04:36:58.640Z,1011.4
2023-04-10T04:38:00.012Z,1011.5
2023-04-10T04:39:01.659Z,1011.4
2023-04-10T04:40:02.639Z,1011.4
2023-04-10T04:41:03.620Z,1011.4
2023-04-10T04:42:04.587Z,1011.4
2023-04-10T04:43:05.679Z,1011.5
2023-04-10T04:44:06.942Z,1011.5
2023-04-10T04:45:09.442Z,1011.4
2023-04-10T04:46:11.083Z,1011.5
2023-04-10T04:47:12.824Z,1011.5
2023-04-10T04:48:13.683Z,1011.5
2023-04-10T04:49:14.870Z,1011.5
2023-04-10T04:50:15.609Z,1011.4
2023-04-10T04:51:16.579Z,1011.5
2023-04-10T04:52:17.561Z,1011.5
2023-04-10T04:53:18.621Z,1011.5
2023-04-10T04:54:19.622Z,1011.5
2023-04-10T04:55:20.603Z,1011.6
2023-04-10T04:56:21.607Z,1011.6
2023-04-10T04:57:22.825Z,1011.7
2023-04-10T04:58:23.659Z,1011.7
2023-04-10T04:59:24.600Z,1011.6
2023-04-10T05:00:25.680Z,1011.6
2023-04-10T05:01:27.703Z,1011.6
2023-04-10T05:02:28.844Z,1011.6
2023-04-10T05:03:29.779Z,1011.6
2023-04-10T05:04:30.736Z,1011.6
2023-04-10T05:05:32.492Z,1011.4
2023-04-10T05:06:33.618Z,1011.5
2023-04-10T05:07:34.599Z,1011.7
2023-04-10T05:08:35.597Z,1011.6
2023-04-10T05:09:36.617Z,1011.6
2023-04-10T05:10:38.979Z,1011.6
2023-04-10T05:11:39.649Z,1011.6
2023-04-10T05:12:40.917Z,1011.6
2023-04-10T05:13:41.900Z,1011.1
2023-04-10T05:14:42.616Z,1011.5
2023-04-10T05:15:43.735Z,1011.6
2023-04-10T05:16:44.601Z,1011.7
2023-04-10T05:17:45.608Z,1011.7
2023-04-10T05:18:46.670Z,1011.7
2023-04-10T05:19:47.657Z,1011.7
2023-04-10T05:20:48.646Z,1011.7
2023-04-10T05:21:49.615Z,1011.7
2023-04-10T05:22:50.598Z,1011.8
2023-04-10T05:23:51.616Z,1011.9
2023-04-10T05:24:52.583Z,1011.9
2023-04-10T05:25:54.074Z,1011.8
2023-04-10T05:26:55.699Z,1011.9
2023-04-10T05:27:56.695Z,1011.8
2023-04-10T05:28:57.655Z,1011.9
2023-04-10T05:29:58.596Z,1011.8
2023-04-10T05:30:59.633Z,1011.9
2023-04-10T05:32:00.660Z,1011.9
2023-04-10T05:33:01.737Z,1011.9
2023-04-10T05:34:02.975Z,1012
2023-04-10T05:35:03.643Z,1012
2023-04-10T05:36:04.672Z,1012
2023-04-10T05:37:05.710Z,1012
2023-04-10T05:38:06.704Z,1012.1
2023-04-10T05:39:07.642Z,1011.7
2023-04-10T05:40:08.637Z,1012
2023-04-10T05:41:09.602Z,1012.1
2023-04-10T05:42:11.881Z,1012.1
2023-04-10T05:43:12.684Z,1012.1
2023-04-10T05:44:13.683Z,1012
2023-04-10T05:45:14.611Z,1012.1
2023-04-10T05:46:15.666Z,1012.1
2023-04-10T05:47:16.764Z,1012.1
2023-04-10T05:48:18.099Z,1012.1
2023-04-10T05:49:19.707Z,1012.2
2023-04-10T05:50:21.533Z,1012.1
2023-04-10T05:51:21.640Z,1012.1
2023-04-10T05:52:22.787Z,1012.2
2023-04-10T05:53:23.658Z,1012.2
2023-04-10T05:54:25.159Z,1012.2
2023-04-10T05:55:26.761Z,1012.2
2023-04-10T05:56:27.637Z,1012.2
2023-04-10T05:57:28.746Z,1011.9
2023-04-10T05:58:29.667Z,1012.1
2023-04-10T05:59:30.623Z,1012.2
2023-04-10T06:00:31.677Z,1012.2
2023-04-10T06:01:32.640Z,1012.2
2023-04-10T06:02:33.868Z,1012.1
2023-04-10T06:03:34.864Z,1012.1
2023-04-10T06:05:36.638Z,1012.1
2023-04-10T06:06:37.638Z,1012.1
2023-04-10T06:07:38.703Z,1012.1
2023-04-10T06:08:39.717Z,1012.1
2023-04-10T06:09:40.609Z,1012.1
2023-04-10T06:10:41.846Z,1012.1
2023-04-10T06:11:42.939Z,1012.1
2023-04-10T06:12:44.845Z,1012.1
2023-04-10T06:13:45.678Z,1012.1
2023-04-10T06:14:46.659Z,1012.1
2023-04-10T06:15:47.684Z,1012.1
2023-04-10T06:16:48.666Z,1012
2023-04-10T06:17:49.703Z,1012.1
2023-04-10T06:18:50.639Z,1012.1
2023-04-10T06:19:52.219Z,1012
2023-04-10T06:20:53.666Z,1012
2023-04-10T06:21:55.187Z,1012
2023-04-10T06:22:55.698Z,1012
2023-04-10T06:23:56.852Z,1012
2023-04-10T06:24:57.657Z,1012
2023-04-10T06:25:58.738Z,1011.9
2023-04-10T06:26:59.660Z,1012
2023-04-10T06:28:00.693Z,1012
2023-04-10T06:29:01.634Z,1012
2023-04-10T06:30:02.887Z,1011.9
2023-04-10T06:31:03.701Z,1011.9
2023-04-10T06:32:04.658Z,1011.9
2023-04-10T06:33:05.752Z,1011.9
2023-04-10T06:34:06.638Z,1011.9
2023-04-10T06:35:07.658Z,1011.9
2023-04-10T06:36:08.732Z,1012
2023-04-10T06:37:09.641Z,1012
2023-04-10T06:38:10.638Z,1011.9
2023-04-10T06:39:11.686Z,1011.9
2023-04-10T06:40:12.978Z,1011.9
2023-04-10T06:41:13.662Z,1011.9
2023-04-10T06:42:15.059Z,1011.9
2023-04-10T06:43:15.784Z,1011.9
2023-04-10T06:44:16.627Z,1011.9
2023-04-10T06:45:17.701Z,1011.9
2023-04-10T06:46:18.649Z,1011.9
2023-04-10T06:47:19.678Z,1011.9
2023-04-10T06:48:21.002Z,1012
2023-04-10T06:49:22.615Z,1011.9
2023-04-10T06:50:23.741Z,1012
2023-04-10T06:51:24.808Z,1012
2023-04-10T06:52:25.648Z,1012
2023-04-10T06:53:26.703Z,1011.9
2023-04-10T06:54:27.652Z,1012
2023-04-10T06:55:28.628Z,1012
2023-04-10T06:56:29.631Z,1012
2023-04-10T06:57:30.659Z,1012.1
2023-04-10T06:58:31.667Z,1012.1
2023-04-10T06:59:32.773Z,1012.1
2023-04-10T07:00:33.692Z,1012.2
2023-04-10T07:01:34.698Z,1012.2
2023-04-10T07:02:35.920Z,1012.2
2023-04-10T07:03:36.667Z,1011.8
2023-04-10T07:04:37.646Z,1012.1
2023-04-10T07:05:40.110Z,1012.1
2023-04-10T07:06:40.540Z,1012.2
2023-04-10T07:07:41.725Z,1012.1
2023-04-10T07:08:42.686Z,1012.2
2023-04-10T07:09:43.605Z,1012.1
2023-04-10T07:10:45.323Z,1012.1
2023-04-10T07:11:46.769Z,1012.2
2023-04-10T07:12:47.683Z,1012.2
2023-04-10T07:13:50.070Z,1012.3
2023-04-10T07:14:51.924Z,1012.3
2023-04-10T07:15:53.737Z,1012.3
2023-04-10T07:16:54.749Z,1012.3
2023-04-10T07:17:55.962Z,1012.3
2023-04-10T07:18:57.793Z,1012.3
2023-04-10T07:19:58.729Z,1012.2
2023-04-10T07:20:59.759Z,1012.3
2023-04-10T07:22:00.719Z,1012.2
2023-04-10T07:23:01.763Z,1012.3
2023-04-10T07:24:02.748Z,1012.2
2023-04-10T07:25:03.700Z,1012.2
2023-04-10T07:26:04.693Z,1012.2
2023-04-10T07:27:05.750Z,1012.1
2023-04-10T07:28:06.760Z,1012.1
2023-04-10T07:29:07.948Z,1012.1
2023-04-10T07:30:08.716Z,1012.1
2023-04-10T07:31:09.701Z,1012.1
2023-04-10T07:32:10.869Z,1012.1
2023-04-10T07:33:11.840Z,1012.1
2023-04-10T07:34:12.670Z,1012.1
2023-04-10T07:35:13.679Z,1012.2
2023-04-10T07:36:14.801Z,1012.1
2023-04-10T07:37:15.687Z,1012.1
2023-04-10T07:38:16.679Z,1012.1
2023-04-10T07:39:17.728Z,1012.1
2023-04-10T07:40:18.802Z,1012.1
2023-04-10T07:41:19.727Z,1012
2023-04-10T07:42:20.702Z,1012.1
2023-04-10T07:43:21.790Z,1012
2023-04-10T07:44:22.686Z,1012.1
2023-04-10T07:45:24.255Z,1012.1
2023-04-10T07:46:25.780Z,1012.1
2023-04-10T07:47:26.745Z,1012.1
2023-04-10T07:48:27.683Z,1012.1
2023-04-10T07:49:28.640Z,1011.8
2023-04-10T07:50:29.703Z,1012
2023-04-10T07:51:30.680Z,1012.1
2023-04-10T07:52:31.800Z,1012.1
2023-04-10T07:53:33.037Z,1012
2023-04-10T07:54:34.730Z,1012
2023-04-10T07:55:35.718Z,1012.1
2023-04-10T07:56:36.719Z,1012.1
2023-04-10T07:57:37.680Z,1012.1
2023-04-10T07:58:38.695Z,1012.1
2023-04-10T07:59:39.853Z,1012.1
2023-04-10T08:00:40.769Z,1012.1
2023-04-10T08:01:41.804Z,1012.2
2023-04-10T08:02:42.725Z,1012.1
2023-04-10T08:03:43.933Z,1012.1
2023-04-10T08:04:45.034Z,1012.2
2023-04-10T08:05:46.702Z,1012.1
2023-04-10T08:06:47.921Z,1012.1
2023-04-10T08:07:48.719Z,1012.1
2023-04-10T08:08:49.724Z,1012.2
2023-04-10T08:09:50.759Z,1012.1
2023-04-10T08:10:51.680Z,1012.1
2023-04-10T08:11:52.720Z,1012.1
2023-04-10T08:12:53.746Z,1012.1
2023-04-10T08:13:54.739Z,1012.1
2023-04-10T08:14:55.744Z,1012.1
2023-04-10T08:15:56.717Z,1012.1
2023-04-10T08:16:57.765Z,1012.1
2023-04-10T08:17:58.814Z,1012.1
2023-04-10T08:18:59.826Z,1012
2023-04-10T08:20:00.757Z,1012
2023-04-10T08:21:02.025Z,1012
2023-04-10T08:22:02.753Z,1012
2023-04-10T08:23:16.952Z,1012
2023-04-10T08:24:05.649Z,1011.9
2023-04-10T08:25:08.329Z,1011.9
2023-04-10T08:26:09.766Z,1012
2023-04-10T08:27:10.738Z,1012
2023-04-10T08:28:11.738Z,1012
2023-04-10T08:29:12.737Z,1011.9
2023-04-10T08:30:13.824Z,1012
2023-04-10T08:31:15.252Z,1011.9
2023-04-10T08:32:17.585Z,1012
2023-04-10T08:33:18.733Z,1012
2023-04-10T08:34:19.760Z,1012.1
2023-04-10T08:35:20.709Z,1012
2023-04-10T08:36:21.750Z,1012
2023-04-10T08:37:22.761Z,1012
2023-04-10T08:38:24.022Z,1012
2023-04-10T08:39:25.711Z,1012
2023-04-10T08:40:26.719Z,1012
2023-04-10T08:41:27.698Z,1012
2023-04-10T08:42:28.736Z,1012
2023-04-10T08:43:29.718Z,1012
2023-04-10T08:44:30.743Z,1012
2023-04-10T08:45:31.684Z,1011.9
2023-04-10T08:46:32.743Z,1011.9
2023-04-10T08:47:33.702Z,1012
2023-04-10T08:48:34.818Z,1012
2023-04-10T08:49:35.778Z,1011.9
2023-04-10T08:50:36.772Z,1012
2023-04-10T08:51:37.819Z,1012
2023-04-10T08:52:38.830Z,1011.9
2023-04-10T08:53:39.732Z,1011.9
2023-04-10T08:54:41.197Z,1011.9
2023-04-10T08:55:42.819Z,1011.9
2023-04-10T08:56:43.752Z,1011.9
2023-04-10T08:57:48.134Z,1011.9
2023-04-10T08:58:45.817Z,1011.9
2023-04-10T08:59:46.742Z,1011.8
2023-04-10T09:00:47.744Z,1011.8
2023-04-10T09:01:48.819Z,1011.8
2023-04-10T09:02:49.825Z,1011.8
2023-04-10T09:03:50.983Z,1011.8
2023-04-10T09:04:51.848Z,1011.7
2023-04-10T09:05:52.785Z,1011.8
2023-04-10T09:06:53.761Z,1011.7
2023-04-10T09:07:54.706Z,1011.7
2023-04-10T09:08:55.768Z,1011.8
2023-04-10T09:09:56.749Z,1011.8
2023-04-10T09:10:57.736Z,1011.8
2023-04-10T09:11:59.180Z,1011.8
2023-04-10T09:13:00.961Z,1011.7
2023-04-10T09:14:01.935Z,1011.8
2023-04-10T09:15:02.735Z,1011.8
2023-04-10T09:16:03.884Z,1011.8
2023-04-10T09:17:05.025Z,1011.9
2023-04-10T09:18:06.832Z,1011.9
2023-04-10T09:19:07.860Z,1011.8
2023-04-10T09:20:08.747Z,1011.8
2023-04-10T09:21:09.711Z,1011.8
2023-04-10T09:22:10.700Z,1011.8
2023-04-10T09:23:11.816Z,1011.8
2023-04-10T09:24:12.793Z,1011.8
2023-04-10T09:25:13.703Z,1011.8
2023-04-10T09:26:14.779Z,1011.7
2023-04-10T09:27:15.765Z,1011.7
2023-04-10T09:28:16.804Z,1011.7
2023-04-10T09:29:17.855Z,1011.7
2023-04-10T09:30:19.063Z,1011.7
2023-04-10T09:31:19.848Z,1011.7
2023-04-10T09:32:20.798Z,1011.7
2023-04-10T09:33:22.005Z,1011.7
2023-04-10T09:34:24.135Z,1011.6
2023-04-10T09:35:25.715Z,1011.6
2023-04-10T09:36:26.777Z,1011.6
2023-04-10T09:37:27.814Z,1011.6
2023-04-10T09:38:28.815Z,1011.5
2023-04-10T09:39:29.734Z,1011.5
2023-04-10T09:40:30.735Z,1011.5
2023-04-10T09:41:31.768Z,1011.5
2023-04-10T09:42:32.831Z,1011.5
2023-04-10T09:43:33.814Z,1011.4
2023-04-10T09:44:34.796Z,1011.4
2023-04-10T09:45:35.781Z,1011.4
2023-04-10T09:46:36.822Z,1011.4
2023-04-10T09:47:37.991Z,1011.3
2023-04-10T09:48:38.796Z,1011.3
2023-04-10T09:49:39.702Z,1011.3
2023-04-10T09:50:40.835Z,1011.3
2023-04-10T09:51:41.791Z,1011.3
2023-04-10T09:52:42.781Z,1011.4
2023-04-10T09:53:43.796Z,1011.2
2023-04-10T09:54:45.087Z,1011.3
2023-04-10T09:55:46.759Z,1011.2
2023-04-10T09:56:47.710Z,1011.2
2023-04-10T09:57:48.802Z,1011.2
2023-04-10T09:58:49.776Z,1011.2
2023-04-10T09:59:50.755Z,1011.2
2023-04-10T10:00:51.755Z,1011.2
2023-04-10T10:01:52.921Z,1011.2
2023-04-10T10:02:54.062Z,1011.1
2023-04-10T10:03:55.775Z,1011.1
2023-04-10T10:04:56.787Z,1011.2
2023-04-10T10:05:57.794Z,1011.1
2023-04-10T10:06:58.774Z,1011.1
2023-04-10T10:07:59.858Z,1011.1
2023-04-10T10:09:00.850Z,1011
2023-04-10T10:10:01.876Z,1011
2023-04-10T10:11:02.764Z,1011
2023-04-10T10:12:03.795Z,1011
2023-04-10T10:13:04.856Z,1011
2023-04-10T10:14:05.749Z,1010.9
2023-04-10T10:15:06.797Z,1011
2023-04-10T10:16:07.813Z,1011
2023-04-10T10:17:08.860Z,1011
2023-04-10T10:18:09.797Z,1010.4
2023-04-10T10:19:10.723Z,1010.9
2023-04-10T10:20:11.777Z,1011
2023-04-10T10:21:12.736Z,1011
2023-04-10T10:22:13.709Z,1010.9
2023-04-10T10:23:15.107Z,1010.9
2023-04-10T10:24:15.817Z,1010.9
2023-04-10T10:25:16.746Z,1010.9
2023-04-10T10:26:17.800Z,1010.9
2023-04-10T10:27:18.859Z,1010.8
2023-04-10T10:28:19.780Z,1010.8
2023-04-10T10:29:20.806Z,1010.8
2023-04-10T10:30:29.244Z,1010.8
2023-04-10T10:31:22.786Z,1010.8
2023-04-10T10:32:24.182Z,1010.8
2023-04-10T10:33:25.791Z,1010.8
2023-04-10T10:34:26.862Z,1010.8
2023-04-10T10:35:29.426Z,1010.8
2023-04-10T10:36:28.828Z,1010.8
2023-04-10T10:37:29.839Z,1010.8
2023-04-10T10:38:30.747Z,1010.8
2023-04-10T10:39:31.841Z,1010.8
2023-04-10T10:40:32.836Z,1010.7
2023-04-10T10:41:33.765Z,1010.7
2023-04-10T10:42:34.785Z,1010.7
2023-04-10T10:43:36.103Z,1010.7
2023-04-10T10:44:37.951Z,1010.7
2023-04-10T10:45:38.907Z,1010.7
2023-04-10T10:46:39.777Z,1010.7
2023-04-10T10:47:41.275Z,1010.7
2023-04-10T10:48:41.802Z,1010.6
2023-04-10T10:49:42.844Z,1010.7
2023-04-10T10:50:43.774Z,1010.6
2023-04-10T10:51:44.768Z,1010.6
2023-04-10T10:52:45.722Z,1010.6
2023-04-10T10:53:46.801Z,1010.7
2023-04-10T10:54:59.043Z,1010.6
2023-04-10T10:55:48.822Z,1010.7
2023-04-10T10:56:50.179Z,1010.6
2023-04-10T10:57:50.781Z,1010.6
2023-04-10T10:58:52.024Z,1010.7
2023-04-10T10:59:53.150Z,1010.6
2023-04-10T11:00:54.900Z,1010.6
2023-04-10T11:01:57.109Z,1010.6
2023-04-10T11:02:58.108Z,1010.6
2023-04-10T11:03:58.964Z,1010.5
2023-04-10T11:04:59.830Z,1010.5
2023-04-10T11:06:00.847Z,1010.5
2023-04-10T11:07:01.802Z,1010.5
2023-04-10T11:08:02.793Z,1010.4
2023-04-10T11:09:03.887Z,1010.4
2023-04-10T11:10:04.848Z,1010.4
2023-04-10T11:11:06.023Z,1010.4
2023-04-10T11:12:06.929Z,1010.4
2023-04-10T11:13:07.830Z,1010.4
2023-04-10T11:14:09.123Z,1010.3
2023-04-10T11:15:09.887Z,1010.4
2023-04-10T11:16:11.278Z,1010.3
2023-04-10T11:17:12.968Z,1010.4
2023-04-10T11:18:13.852Z,1010.4
2023-04-10T11:19:16.324Z,1010.3
2023-04-10T11:20:15.790Z,1010.3
2023-04-10T11:21:17.325Z,1010.3
2023-04-10T11:22:19.094Z,1010.2
2023-04-10T11:23:19.814Z,1010.3
2023-04-10T11:24:20.871Z,1010.3
2023-04-10T11:25:21.920Z,1010.3
2023-04-10T11:26:22.785Z,1010.3
2023-04-10T11:27:23.822Z,1010.3
2023-04-10T11:28:24.740Z,1010.3
2023-04-10T11:29:25.780Z,1010.1
2023-04-10T11:30:26.823Z,1010.1
2023-04-10T11:31:27.875Z,1010.2
2023-04-10T11:32:28.909Z,1010.2
2023-04-10T11:33:29.958Z,1010.2
2023-04-10T11:34:31.028Z,1010.1
2023-04-10T11:35:32.030Z,1010.2
2023-04-10T11:36:33.010Z,1010.1
2023-04-10T11:37:33.823Z,1010.2
2023-04-10T11:38:34.936Z,1010.2
2023-04-10T11:39:35.937Z,1010.2
2023-04-10T11:40:37.062Z,1010.2
2023-04-10T11:41:39.399Z,1010.2
2023-04-10T11:42:40.861Z,1010.2
2023-04-10T11:43:41.817Z,1010.2
2023-04-10T11:44:42.858Z,1010.2
2023-04-10T11:45:43.877Z,1010.2
2023-04-10T11:46:44.857Z,1010.2
2023-04-10T11:47:45.835Z,1010.1
2023-04-10T11:48:46.919Z,1010.2
2023-04-10T11:49:47.841Z,1010.1
2023-04-10T11:50:48.879Z,1010.2
2023-04-10T11:51:49.858Z,1010.1
2023-04-10T11:52:51.426Z,1010
2023-04-10T11:53:52.937Z,1010
2023-04-10T11:54:53.843Z,1010
2023-04-10T11:55:54.895Z,1010
2023-04-10T11:56:55.824Z,1010.1
2023-04-10T11:57:56.877Z,1010
2023-04-10T11:58:57.928Z,1010
2023-04-10T11:59:58.859Z,1010
2023-04-10T12:00:59.840Z,1010
2023-04-10T12:02:00.898Z,1009.9
2023-04-10T12:03:02.150Z,1010
2023-04-10T12:04:03.047Z,1009.9
2023-04-10T12:05:03.827Z,1009.9
2023-04-10T12:06:04.815Z,1009.9
2023-04-10T12:07:05.872Z,1009.9
2023-04-10T12:08:07.792Z,1009.9
2023-04-10T12:09:08.837Z,1009.9
2023-04-10T12:10:09.917Z,1009.9
2023-04-10T12:11:10.835Z,1009.9
2023-04-10T12:12:11.865Z,1010
2023-04-10T12:13:12.883Z,1010
2023-04-10T12:14:13.843Z,1009.9
2023-04-10T12:15:14.837Z,1010
2023-04-10T12:16:15.949Z,1010
2023-04-10T12:17:16.875Z,1009.8
2023-04-10T12:18:17.826Z,1010
2023-04-10T12:19:19.079Z,1010
2023-04-10T12:20:19.843Z,1010
2023-04-10T12:21:20.910Z,1010
2023-04-10T12:22:21.883Z,1010
2023-04-10T12:23:22.891Z,1010
2023-04-10T12:24:24.053Z,1009.9
2023-04-10T12:25:24.885Z,1009.9
2023-04-10T12:26:25.814Z,1009.9
2023-04-10T12:27:26.985Z,1009.9
2023-04-10T12:28:27.834Z,1009.9
2023-04-10T12:29:28.959Z,1009.9
2023-04-10T12:30:29.817Z,1009.9
2023-04-10T12:31:30.906Z,1009.9
2023-04-10T12:32:31.910Z,1009.9
2023-04-10T12:33:32.976Z,1009.9
2023-04-10T12:34:33.924Z,1009.8
2023-04-10T12:35:34.834Z,1009.9
2023-04-10T12:36:35.879Z,1009.8
2023-04-10T12:37:36.837Z,1009.9
2023-04-10T12:38:37.969Z,1009.5
2023-04-10T12:39:39.280Z,1009.7
2023-04-10T12:40:41.127Z,1009.8
2023-04-10T12:41:41.874Z,1009.8
2023-04-10T12:42:42.860Z,1009.8
2023-04-10T12:43:43.883Z,1009.8
2023-04-10T12:44:44.842Z,1009.7
2023-04-10T12:45:45.823Z,1009.7
2023-04-10T12:46:46.871Z,1009.8
2023-04-10T12:47:47.949Z,1009.7
2023-04-10T12:48:49.145Z,1009.8